Time;durP1;ratioP1;P1;durP2;ratioP2;P2;SDS_P1;SDS_P2;PMS_P1;PMS_P2;Temp;Humidity;BMP_temperature;BMP_pressure;BME280_temperature;BME280_humidity;BME280_pressure;Samples;Min_cycle;Max_cycle;Signal;HPM_P1;HPM_P2
2023/10/02 00:01:06;;;;;;;25.65;24.73;;;15.90;99.90;;;;;;5071729;28;20610;-66
2023/10/02 00:03:34;;;;;;;27.48;26.48;;;15.90;99.90;;;;;;5071576;28;20203;-66
2023/10/02 00:06:02;;;;;;;26.48;25.52;;;15.80;99.90;;;;;;5072163;28;20210;-65
2023/10/02 00:08:39;;;;;;;32.00;30.70;;;15.80;99.90;;;;;;5071751;28;20215;-65
2023/10/02 00:14:18;;;;;;;28.55;27.45;;;15.70;99.90;;;;;;5071059;28;20222;-66
2023/10/02 00:16:42;;;;;;;27.70;26.67;;;15.60;99.90;;;;;;5074053;28;20210;-66
2023/10/02 00:19:22;;;;;;;30.38;29.20;;;15.60;99.90;;;;;;5071819;28;20214;-67
2023/10/02 00:21:50;;;;;;;32.03;30.83;;;15.50;99.90;;;;;;5070301;28;20270;-66
2023/10/02 00:24:18;;;;;;;33.45;32.15;;;15.50;99.90;;;;;;5069373;28;20219;-65
2023/10/02 00:26:45;;;;;;;32.15;30.92;;;15.50;99.90;;;;;;5070119;28;20417;-67
2023/10/02 00:29:14;;;;;;;32.95;31.75;;;15.60;99.90;;;;;;5070159;28;20213;-66
2023/10/02 00:31:44;;;;;;;31.10;29.98;;;15.50;99.90;;;;;;5070170;28;20227;-65
2023/10/02 00:34:11;;;;;;;33.75;32.50;;;15.50;99.90;;;;;;5070012;28;20215;-64
2023/10/02 00:36:38;;;;;;;34.92;33.65;;;15.50;99.90;;;;;;5063427;28;20208;-65
2023/10/02 00:42:10;;;;;;;28.50;27.50;;;15.60;99.90;;;;;;5070474;28;20239;-64
2023/10/02 00:47:16;;;;;;;27.37;26.27;;;15.50;99.90;;;;;;5069628;28;20210;-67
2023/10/02 00:49:42;;;;;;;24.30;23.35;;;15.50;99.90;;;;;;5069908;28;20209;-65
2023/10/02 00:52:10;;;;;;;25.60;24.65;;;15.50;99.90;;;;;;5069586;28;20223;-66
2023/10/02 00:54:37;;;;;;;27.92;26.88;;;15.50;99.90;;;;;;5069810;28;20239;-65
2023/10/02 00:57:16;;;;;;;22.33;21.52;;;15.60;99.90;;;;;;5069224;28;20253;-65
2023/10/02 00:59:45;;;;;;;24.88;23.95;;;15.60;99.90;;;;;;5069728;28;20219;-64
2023/10/02 01:02:17;;;;;;;20.42;19.63;;;15.60;99.90;;;;;;5069761;28;20573;-65
2023/10/02 01:04:44;;;;;;;27.98;26.88;;;15.60;99.90;;;;;;5069759;28;20241;-64
2023/10/02 01:07:15;;;;;;;22.88;22.05;;;15.60;99.90;;;;;;5069552;28;20213;-67
2023/10/02 01:10:06;;;;;;;24.10;23.20;;;15.60;99.90;;;;;;5069828;28;20211;-66
2023/10/02 01:12:40;;;;;;;30.70;29.58;;;15.60;99.90;;;;;;5069585;28;20674;-64
2023/10/02 01:15:09;;;;;;;28.42;27.33;;;15.50;99.90;;;;;;5069618;28;20215;-65
2023/10/02 01:17:39;;;;;;;30.90;29.77;;;15.40;99.90;;;;;;5069489;28;20242;-65
2023/10/02 01:20:12;;;;;;;31.50;30.30;;;15.50;99.90;;;;;;5069635;28;20257;-64
2023/10/02 01:22:43;;;;;;;28.13;27.08;;;15.40;99.90;;;;;;5069705;28;20285;-67
2023/10/02 01:25:16;;;;;;;33.10;31.83;;;15.40;99.90;;;;;;5069617;28;20231;-65
2023/10/02 01:27:46;;;;;;;29.45;28.38;;;15.40;99.90;;;;;;5069806;28;20207;-67
2023/10/02 01:30:17;;;;;;;34.22;32.95;;;15.30;99.90;;;;;;5069847;28;20709;-65
2023/10/02 01:35:36;;;;;;;29.95;28.77;;;15.30;99.90;;;;;;5070250;28;20203;-65
2023/10/02 01:38:12;;;;;;;31.65;30.45;;;15.30;99.90;;;;;;5086085;28;20220;-65
2023/10/02 01:40:43;;;;;;;28.00;26.95;;;15.30;99.90;;;;;;5090847;28;20275;-65
2023/10/02 01:43:13;;;;;;;25.98;25.05;;;15.40;99.90;;;;;;5089358;28;20250;-65
2023/10/02 01:45:44;;;;;;;29.17;28.08;;;15.40;99.90;;;;;;5088694;28;20211;-65
2023/10/02 01:48:36;;;;;;;29.65;28.55;;;15.50;99.90;;;;;;5088503;28;20207;-64
2023/10/02 01:51:15;;;;;;;28.02;27.00;;;15.40;99.90;;;;;;5080822;28;20203;-65
2023/10/02 01:53:43;;;;;;;33.63;32.38;;;15.40;99.90;;;;;;5076904;28;20689;-65
2023/10/02 01:56:12;;;;;;;26.75;25.75;;;15.40;99.90;;;;;;5072725;28;20203;-67
2023/10/02 01:58:40;;;;;;;27.50;26.42;;;15.30;99.90;;;;;;5072363;28;20239;-64
2023/10/02 02:01:09;;;;;;;34.00;32.72;;;15.30;99.90;;;;;;5072367;28;20210;-65
2023/10/02 02:03:37;;;;;;;28.55;27.50;;;15.30;99.90;;;;;;5072655;28;20213;-65
2023/10/02 02:06:09;;;;;;;33.73;32.47;;;15.30;99.90;;;;;;5072700;28;20532;-65
2023/10/02 02:08:37;;;;;;;33.17;31.95;;;15.30;99.90;;;;;;5072402;28;20291;-65
2023/10/02 02:11:18;;;;;;;34.92;33.60;;;15.40;99.90;;;;;;5072424;28;20221;-64
2023/10/02 02:13:47;;;;;;;33.22;32.03;;;15.40;99.90;;;;;;5072551;28;20268;-65
2023/10/02 02:16:16;;;;;;;34.75;33.47;;;15.40;99.90;;;;;;5072627;28;20225;-65
2023/10/02 02:18:45;;;;;;;40.72;39.22;;;15.30;99.90;;;;;;5072351;28;20231;-66
2023/10/02 02:21:16;;;;;;;32.45;31.27;;;15.40;99.90;;;;;;5072295;28;20594;-65
2023/10/02 02:23:42;;;;;;;29.63;28.53;;;15.30;99.90;;;;;;5072097;28;20315;-66
2023/10/02 02:26:09;;;;;;;31.23;30.10;;;15.30;99.90;;;;;;5074067;28;20685;-65
2023/10/02 02:28:43;;;;;;;32.55;31.35;;;15.30;99.90;;;;;;5079600;28;20293;-67
2023/10/02 02:31:29;;;;;;;30.23;29.10;;;15.30;99.90;;;;;;5072315;28;20250;-67
2023/10/02 02:33:58;;;;;;;32.60;31.40;;;15.30;99.90;;;;;;5072136;28;20215;-63
2023/10/02 02:36:27;;;;;;;36.50;34.97;;;15.30;99.90;;;;;;5071781;28;20222;-63
2023/10/02 02:39:15;;;;;;;31.38;30.17;;;15.30;99.90;;;;;;5072133;28;20228;-65
2023/10/02 02:41:43;;;;;;;27.10;26.00;;;15.30;99.90;;;;;;5071872;28;20234;-65
2023/10/02 02:44:29;;;;;;;25.20;24.20;;;15.20;99.90;;;;;;5071548;28;20292;-65
2023/10/02 02:46:57;;;;;;;26.08;25.13;;;15.20;99.90;;;;;;5071037;28;20691;-66
2023/10/02 02:49:26;;;;;;;27.33;26.33;;;15.20;99.90;;;;;;5071258;28;20203;-64
2023/10/02 02:51:55;;;;;;;27.25;26.25;;;15.10;99.90;;;;;;5071563;28;20227;-64
2023/10/02 02:54:25;;;;;;;35.70;34.37;;;15.10;99.90;;;;;;5071561;28;20658;-65
2023/10/02 02:56:57;;;;;;;26.52;25.52;;;15.10;99.90;;;;;;5071315;28;20296;-65
2023/10/02 02:59:27;;;;;;;27.65;26.60;;;15.00;99.90;;;;;;5071389;28;20273;-65
2023/10/02 03:02:08;;;;;;;26.48;25.52;;;14.90;99.90;;;;;;5071730;28;20223;-65
2023/10/02 03:04:36;;;;;;;23.93;23.03;;;14.90;99.90;;;;;;5071746;28;20588;-66
2023/10/02 03:07:09;;;;;;;28.10;27.10;;;14.80;99.90;;;;;;5071356;28;20207;-66
2023/10/02 03:09:36;;;;;;;28.45;27.42;;;14.80;99.90;;;;;;5071372;28;20199;-66
2023/10/02 03:12:05;;;;;;;26.30;25.33;;;14.80;99.90;;;;;;5071298;28;20332;-66
2023/10/02 03:14:33;;;;;;;26.10;25.10;;;14.80;99.90;;;;;;5071598;28;20219;-65
2023/10/02 03:17:22;;;;;;;26.60;25.63;;;14.80;99.90;;;;;;5071477;28;20207;-64
2023/10/02 03:19:49;;;;;;;24.73;23.83;;;14.80;99.90;;;;;;5073100;28;20230;-66
2023/10/02 03:22:17;;;;;;;31.70;30.52;;;14.80;99.90;;;;;;5072368;28;20310;-66
2023/10/02 03:24:46;;;;;;;23.85;22.98;;;14.80;99.90;;;;;;5072792;28;20297;-66
2023/10/02 03:27:14;;;;;;;24.75;23.83;;;14.80;99.90;;;;;;5071255;28;20580;-66
2023/10/02 03:29:42;;;;;;;26.85;25.85;;;14.80;99.90;;;;;;5071084;28;20222;-65
2023/10/02 03:32:11;;;;;;;29.57;28.47;;;14.80;99.90;;;;;;5070602;28;20698;-64
2023/10/02 03:34:38;;;;;;;27.42;26.42;;;14.80;99.90;;;;;;5070743;28;20213;-64
2023/10/02 03:37:14;;;;;;;26.00;25.03;;;14.80;99.90;;;;;;5070451;28;20322;-64
2023/10/02 03:40:00;;;;;;;25.17;24.25;;;14.80;99.90;;;;;;5070787;28;20721;-64
2023/10/02 03:42:30;;;;;;;31.00;29.63;;;14.80;99.90;;;;;;5070741;28;20725;-66
2023/10/02 03:44:58;;;;;;;29.20;28.10;;;14.80;99.90;;;;;;5070890;28;20207;-65
2023/10/02 03:47:27;;;;;;;25.83;24.85;;;14.80;99.90;;;;;;5070694;28;20203;-66
2023/10/02 03:50:00;;;;;;;32.70;31.50;;;14.80;99.90;;;;;;5071183;28;20545;-67
2023/10/02 03:52:29;;;;;;;22.93;22.13;;;14.80;99.90;;;;;;5071209;28;20235;-63
2023/10/02 03:54:56;;;;;;;24.40;23.50;;;14.80;99.90;;;;;;5073531;28;20271;-66
2023/10/02 04:00:18;;;;;;;23.65;22.83;;;14.80;99.90;;;;;;5084822;28;20230;-64
2023/10/02 04:02:45;;;;;;;30.42;29.33;;;14.80;99.90;;;;;;5087222;28;20268;-65
2023/10/02 04:05:30;;;;;;;27.07;26.07;;;14.80;99.90;;;;;;5070748;28;20207;-65
2023/10/02 04:08:12;;;;;;;35.10;33.78;;;14.90;99.90;;;;;;5070508;28;20644;-64
2023/10/02 04:10:51;;;;;;;26.95;25.95;;;14.80;99.90;;;;;;5070883;28;20215;-64
2023/10/02 04:13:21;;;;;;;33.83;32.57;;;14.80;99.90;;;;;;5070958;28;20660;-65
2023/10/02 04:15:49;;;;;;;31.63;30.43;;;14.80;99.90;;;;;;5071056;28;20719;-66
2023/10/02 04:18:45;;;;;;;25.43;24.43;;;14.70;99.90;;;;;;5070087;28;20230;-66
2023/10/02 04:21:09;;;;;;;22.95;22.05;;;14.60;99.90;;;;;;5070024;28;20199;-64
2023/10/02 04:23:40;;;;;;;33.05;31.85;;;14.60;99.90;;;;;;5070690;28;20210;-67
2023/10/02 04:26:19;;;;;;;24.40;23.40;;;14.50;99.90;;;;;;5070579;28;20775;-64
2023/10/02 04:28:55;;;;;;;25.13;24.23;;;14.40;99.90;;;;;;5070022;28;20238;-65
2023/10/02 04:31:23;;;;;;;26.17;25.17;;;14.40;99.90;;;;;;5070416;28;20222;-65
2023/10/02 04:34:06;;;;;;;29.73;28.63;;;14.40;99.90;;;;;;5069968;28;20692;-66
2023/10/02 04:36:34;;;;;;;25.60;24.60;;;14.40;99.90;;;;;;5070343;28;20206;-65
2023/10/02 04:39:04;;;;;;;25.90;24.90;;;14.40;99.90;;;;;;5066988;28;20319;-65
2023/10/02 04:42:09;;;;;;;23.25;22.40;;;14.40;99.90;;;;;;5076619;28;20261;-64
2023/10/02 04:44:18;;;;;;;23.52;22.63;;;14.40;99.90;;;;;;5073388;28;20215;-66
2023/10/02 04:46:46;;;;;;;27.43;26.43;;;14.40;99.90;;;;;;5070868;28;20650;-64
2023/10/02 04:49:11;;;;;;;26.83;25.83;;;14.40;99.90;;;;;;5070391;28;20207;-64
2023/10/02 04:51:46;;;;;;;27.80;26.80;;;14.40;99.90;;;;;;5070227;28;20219;-65
2023/10/02 04:54:15;;;;;;;26.75;25.75;;;14.30;99.90;;;;;;5070539;28;20206;-66
2023/10/02 04:56:46;;;;;;;20.35;19.55;;;14.40;99.90;;;;;;5069782;28;20207;-61
2023/10/02 04:59:13;;;;;;;18.17;17.48;;;14.70;99.90;;;;;;5069533;28;20277;-62
2023/10/02 05:01:41;;;;;;;15.10;14.50;;;15.40;99.90;;;;;;5069912;28;20239;-61
2023/10/02 05:04:18;;;;;;;23.50;22.63;;;16.00;99.90;;;;;;5069785;28;20214;-60
2023/10/02 05:06:52;;;;;;;27.80;26.73;;;16.30;99.90;;;;;;5068070;28;20252;-65
2023/10/02 05:09:38;;;;;;;25.73;24.75;;;16.30;99.90;;;;;;5070079;28;20654;-66
2023/10/02 05:12:06;;;;;;;30.02;28.88;;;15.90;99.90;;;;;;5072522;28;20257;-66
2023/10/02 05:14:48;;;;;;;26.60;25.60;;;15.60;99.90;;;;;;5073811;28;20203;-66
2023/10/02 05:17:17;;;;;;;29.57;28.47;;;15.30;99.90;;;;;;5074711;28;20275;-64
2023/10/02 05:22:33;;;;;;;30.00;28.90;;;15.10;99.90;;;;;;5070931;28;20227;-64
2023/10/02 05:25:04;;;;;;;24.33;23.43;;;15.00;99.90;;;;;;5073880;28;20588;-66
2023/10/02 05:27:32;;;;;;;29.40;28.30;;;15.00;99.90;;;;;;5074501;28;20238;-66
2023/10/02 05:30:00;;;;;;;32.37;31.17;;;14.80;99.90;;;;;;5073971;28;20206;-64
2023/10/02 05:32:35;;;;;;;30.20;29.10;;;14.80;99.90;;;;;;5073472;28;20227;-65
2023/10/02 05:35:06;;;;;;;32.20;31.00;;;14.80;99.90;;;;;;5073186;28;20221;-66
2023/10/02 05:37:39;;;;;;;28.15;27.15;;;14.80;99.90;;;;;;5072010;28;20272;-66
2023/10/02 05:43:09;;;;;;;30.10;29.00;;;14.80;99.90;;;;;;5073394;28;20246;-66
2023/10/02 05:45:38;;;;;;;30.87;29.73;;;14.70;99.90;;;;;;5058530;28;20287;-66
2023/10/02 05:48:08;;;;;;;36.87;35.50;;;14.60;99.90;;;;;;5068718;28;20208;-66
2023/10/02 05:50:38;;;;;;;32.43;31.23;;;14.50;99.90;;;;;;5057548;28;20220;-64
2023/10/02 05:53:06;;;;;;;35.33;34.03;;;14.60;99.90;;;;;;5058419;28;20223;-65
2023/10/02 05:58:23;;;;;;;29.40;28.33;;;14.50;99.90;;;;;;5072838;28;20307;-66
2023/10/02 06:00:51;;;;;;;29.37;28.27;;;14.50;99.90;;;;;;5074051;28;20213;-64
2023/10/02 06:03:18;;;;;;;29.83;28.73;;;14.60;99.90;;;;;;5074194;28;20237;-65
2023/10/02 06:06:10;;;;;;;28.13;27.05;;;14.60;99.90;;;;;;5072805;28;20207;-67
2023/10/02 06:08:33;;;;;;;29.00;27.92;;;14.60;99.90;;;;;;5068583;28;20211;-65
2023/10/02 06:11:25;;;;;;;27.13;26.13;;;14.60;99.90;;;;;;5072061;28;20211;-66
2023/10/02 06:13:54;;;;;;;32.40;31.20;;;14.60;99.90;;;;;;5072697;28;20260;-65
2023/10/02 06:16:24;;;;;;;30.85;29.73;;;14.70;99.90;;;;;;5072803;28;20211;-65
2023/10/02 06:19:00;;;;;;;37.72;36.33;;;14.60;99.90;;;;;;5073313;28;20749;-64
2023/10/02 06:21:31;;;;;;;29.97;28.87;;;14.70;99.90;;;;;;5072484;28;20222;-65
2023/10/02 06:23:58;;;;;;;31.02;29.83;;;14.70;99.90;;;;;;5072790;28;20207;-65
2023/10/02 06:26:29;;;;;;;29.52;28.42;;;14.70;99.90;;;;;;5072633;28;20670;-65
2023/10/02 06:29:16;;;;;;;29.20;28.10;;;14.70;99.90;;;;;;5071071;28;20227;-65
2023/10/02 06:31:43;;;;;;;30.30;29.03;;;14.80;99.90;;;;;;5072196;28;20288;-66
2023/10/02 06:34:12;;;;;;;28.30;27.20;;;14.80;99.90;;;;;;5072341;28;20211;-65
2023/10/02 06:36:47;;;;;;;31.40;30.30;;;14.90;99.90;;;;;;5072128;28;20670;-66
2023/10/02 06:39:17;;;;;;;28.67;27.57;;;14.90;99.90;;;;;;5072788;28;20239;-66
2023/10/02 06:41:46;;;;;;;35.87;34.50;;;14.90;99.90;;;;;;5072082;28;20235;-65
2023/10/02 06:44:16;;;;;;;26.17;25.17;;;15.00;99.90;;;;;;5072108;28;20207;-66
2023/10/02 06:46:53;;;;;;;32.03;30.83;;;15.00;99.90;;;;;;5071658;28;20294;-66
2023/10/02 06:49:21;;;;;;;33.40;32.10;;;15.10;99.90;;;;;;5072309;28;20214;-65
2023/10/02 06:51:51;;;;;;;33.63;32.35;;;15.20;99.90;;;;;;5071843;28;20237;-66
2023/10/02 06:54:19;;;;;;;30.88;29.73;;;15.30;99.90;;;;;;5072281;28;20211;-66
2023/10/02 06:56:47;;;;;;;28.53;27.43;;;15.30;99.90;;;;;;5071615;28;20207;-66
2023/10/02 06:59:14;;;;;;;27.42;26.40;;;15.60;99.90;;;;;;5071666;28;20587;-66
2023/10/02 07:02:04;;;;;;;28.20;27.17;;;15.50;99.90;;;;;;5071940;28;20227;-66
2023/10/02 07:04:30;;;;;;;31.37;30.20;;;15.60;99.90;;;;;;5071876;28;20221;-64
2023/10/02 07:07:03;;;;;;;32.57;31.23;;;15.70;99.90;;;;;;5072468;28;20211;-64
2023/10/02 07:09:34;;;;;;;27.17;26.17;;;15.80;99.90;;;;;;5071486;28;20203;-66
2023/10/02 07:12:14;;;;;;;28.17;27.13;;;15.90;99.90;;;;;;5073225;28;20598;-69
2023/10/02 07:14:43;;;;;;;28.02;26.95;;;15.90;99.90;;;;;;5073802;28;20218;-65
2023/10/02 07:17:17;;;;;;;32.80;31.60;;;16.00;99.90;;;;;;5073449;28;20279;-66
2023/10/02 07:19:52;;;;;;;29.70;28.50;;;16.00;99.90;;;;;;5070506;28;20231;-67
2023/10/02 07:22:23;;;;;;;34.27;32.97;;;16.20;99.90;;;;;;5071958;28;20238;-67
2023/10/02 07:24:54;;;;;;;34.50;33.20;;;16.30;99.90;;;;;;5069845;28;20211;-67
2023/10/02 07:27:26;;;;;;;36.25;34.92;;;16.50;99.90;;;;;;5071480;28;20306;-67
2023/10/02 07:29:55;;;;;;;28.23;27.15;;;16.60;99.90;;;;;;5069962;28;20204;-67
2023/10/02 07:32:24;;;;;;;30.87;29.67;;;16.70;99.90;;;;;;5071183;28;20354;-66
2023/10/02 07:34:53;;;;;;;31.88;30.70;;;16.90;99.90;;;;;;5070559;28;20374;-65
2023/10/02 07:37:24;;;;;;;30.05;28.85;;;17.00;99.90;;;;;;5070987;28;20243;-65
2023/10/02 07:39:56;;;;;;;22.85;22.00;;;17.20;99.90;;;;;;5071412;28;20226;-66
2023/10/02 07:42:26;;;;;;;23.40;22.53;;;17.30;99.90;;;;;;5071292;28;20242;-66
2023/10/02 07:44:52;;;;;;;29.92;28.80;;;17.50;99.90;;;;;;5070783;28;20218;-64
2023/10/02 07:47:21;;;;;;;18.27;17.57;;;17.70;99.90;;;;;;5070931;28;20310;-64
2023/10/02 07:49:51;;;;;;;18.25;17.55;;;17.80;99.90;;;;;;5069592;28;20294;-65
2023/10/02 07:52:29;;;;;;;17.67;16.98;;;17.90;99.90;;;;;;5071452;28;20733;-65
2023/10/02 07:54:59;;;;;;;17.20;16.50;;;18.00;99.90;;;;;;5076802;28;20219;-66
2023/10/02 07:57:30;;;;;;;19.17;18.37;;;18.20;99.90;;;;;;5073354;28;20238;-64
2023/10/02 07:59:59;;;;;;;16.98;16.38;;;18.30;99.90;;;;;;5076561;28;20273;-67
2023/10/02 08:02:33;;;;;;;16.83;16.17;;;18.50;99.90;;;;;;5073581;28;20235;-64
2023/10/02 08:05:03;;;;;;;18.45;17.75;;;18.60;99.90;;;;;;5074024;28;20210;-63
2023/10/02 08:07:30;;;;;;;17.80;17.10;;;18.80;99.90;;;;;;5071273;28;20261;-64
2023/10/02 08:09:58;;;;;;;18.17;17.47;;;18.90;99.90;;;;;;5072889;28;20207;-65
2023/10/02 08:12:33;;;;;;;18.08;17.38;;;19.10;99.90;;;;;;5066999;28;20268;-64
2023/10/02 08:15:26;;;;;;;17.88;17.17;;;19.20;99.90;;;;;;5072266;28;20207;-64
2023/10/02 08:18:03;;;;;;;18.70;18.00;;;19.40;99.90;;;;;;5070383;28;20216;-65
2023/10/02 08:20:36;;;;;;;19.35;18.65;;;19.50;99.90;;;;;;5070607;28;20227;-67
2023/10/02 08:23:21;;;;;;;20.33;19.53;;;19.70;99.90;;;;;;5070670;28;20231;-66
2023/10/02 08:26:00;;;;;;;20.15;19.38;;;19.90;99.90;;;;;;5070442;28;20268;-65
2023/10/02 08:28:29;;;;;;;18.70;18.00;;;20.10;99.90;;;;;;5070341;28;20211;-65
2023/10/02 08:31:01;;;;;;;19.80;19.10;;;20.30;99.90;;;;;;5070423;28;20226;-64
2023/10/02 08:33:30;;;;;;;17.73;17.02;;;20.60;99.90;;;;;;5069291;28;20221;-64
2023/10/02 08:35:58;;;;;;;19.90;19.15;;;20.70;99.90;;;;;;5070988;28;20216;-64
2023/10/02 08:38:26;;;;;;;18.05;17.35;;;20.90;99.90;;;;;;5067253;28;20208;-64
2023/10/02 08:41:02;;;;;;;18.15;17.45;;;21.00;99.90;;;;;;5068602;28;20223;-64
2023/10/02 08:43:32;;;;;;;19.40;18.67;;;21.20;99.90;;;;;;5071883;28;20202;-64
2023/10/02 08:46:00;;;;;;;19.67;18.88;;;21.40;99.90;;;;;;5069414;28;20613;-63
2023/10/02 08:48:31;;;;;;;20.10;19.38;;;21.50;99.90;;;;;;5070673;28;20207;-65
2023/10/02 08:50:59;;;;;;;19.45;18.75;;;21.60;99.90;;;;;;5065298;28;20204;-66
2023/10/02 08:53:27;;;;;;;18.35;17.65;;;21.70;99.90;;;;;;5070170;28;20203;-66
2023/10/02 08:56:22;;;;;;;20.13;19.30;;;21.80;99.90;;;;;;5070451;28;20700;-67
2023/10/02 08:59:15;;;;;;;17.27;16.60;;;21.90;99.90;;;;;;5070224;28;20246;-66
2023/10/02 09:01:40;;;;;;;18.20;17.50;;;22.00;99.90;;;;;;5069918;28;20239;-66
2023/10/02 09:07:14;;;;;;;18.42;17.73;;;22.30;99.90;;;;;;5065781;28;20261;-65
2023/10/02 09:09:45;;;;;;;19.23;18.52;;;22.40;99.90;;;;;;5068543;28;20216;-64
2023/10/02 09:12:15;;;;;;;19.30;18.50;;;22.50;99.90;;;;;;5069584;28;20280;-65
2023/10/02 09:14:43;;;;;;;18.35;17.65;;;22.60;99.90;;;;;;5068122;28;20214;-64
2023/10/02 09:17:19;;;;;;;19.52;18.83;;;22.60;99.90;;;;;;5069615;28;20215;-66
2023/10/02 09:19:54;;;;;;;21.63;20.75;;;22.70;99.90;;;;;;5070190;28;20227;-66
2023/10/02 09:22:23;;;;;;;19.42;18.70;;;22.70;99.90;;;;;;5065065;28;20234;-64
2023/10/02 09:24:58;;;;;;;20.15;19.38;;;22.70;99.90;;;;;;5070069;28;20310;-66
2023/10/02 09:27:30;;;;;;;20.50;19.70;;;22.80;99.90;;;;;;5070107;28;20938;-65
2023/10/02 09:30:19;;;;;;;18.73;17.92;;;22.80;99.90;;;;;;5070457;28;20563;-69
2023/10/02 09:32:49;;;;;;;19.13;18.42;;;22.90;99.90;;;;;;5075106;28;20235;-65
2023/10/02 09:35:29;;;;;;;20.35;19.55;;;23.00;99.90;;;;;;5085967;28;20279;-67
2023/10/02 09:37:59;;;;;;;20.67;19.88;;;23.00;99.90;;;;;;5074022;28;20297;-65
2023/10/02 09:40:29;;;;;;;20.63;19.83;;;23.00;99.90;;;;;;5076402;28;20250;-66
2023/10/02 09:43:02;;;;;;;20.10;19.38;;;23.00;99.90;;;;;;5070798;28;20235;-66
2023/10/02 09:45:32;;;;;;;19.85;19.05;;;23.00;99.90;;;;;;5069760;28;20204;-65
2023/10/02 09:48:05;;;;;;;19.42;18.73;;;23.10;99.90;;;;;;5069765;28;20271;-65
2023/10/02 09:50:41;;;;;;;19.90;19.10;;;23.30;99.90;;;;;;5070126;28;20312;-65
2023/10/02 09:53:10;;;;;;;20.65;19.85;;;23.40;99.90;;;;;;5070121;28;20313;-67
2023/10/02 09:55:52;;;;;;;19.40;18.70;;;23.40;99.90;;;;;;5069751;28;20213;-65
2023/10/02 09:58:28;;;;;;;18.67;17.90;;;23.50;99.90;;;;;;5070421;28;20230;-65
2023/10/02 10:01:33;;;;;;;19.95;19.15;;;23.60;99.90;;;;;;5072967;28;20314;-65
2023/10/02 10:04:08;;;;;;;18.88;18.17;;;23.70;99.90;;;;;;5073645;28;20207;-65
2023/10/02 10:06:48;;;;;;;18.90;18.20;;;23.70;99.90;;;;;;5073204;28;20209;-64
2023/10/02 10:09:25;;;;;;;19.27;18.58;;;23.80;99.90;;;;;;5073684;28;20336;-64
2023/10/02 10:14:37;;;;;;;19.45;18.65;;;24.00;99.90;;;;;;5073177;28;20206;-66
2023/10/02 10:17:12;;;;;;;19.88;19.08;;;24.00;99.90;;;;;;5073119;28;20230;-64
2023/10/02 10:19:44;;;;;;;19.27;18.52;;;24.00;99.90;;;;;;5074508;28;20232;-65
2023/10/02 10:22:35;;;;;;;20.50;19.70;;;24.00;99.90;;;;;;5072199;28;20231;-65
2023/10/02 10:27:58;;;;;;;20.23;19.40;;;24.40;99.90;;;;;;5072861;28;20207;-64
2023/10/02 10:30:33;;;;;;;19.95;19.15;;;24.30;99.90;;;;;;5063546;28;20207;-65
2023/10/02 10:33:34;;;;;;;19.38;18.67;;;24.50;99.90;;;;;;5081896;28;20234;-64
2023/10/02 10:36:08;;;;;;;19.02;18.33;;;24.70;99.90;;;;;;5085652;28;20232;-66
2023/10/02 10:38:41;;;;;;;19.55;18.85;;;24.90;99.90;;;;;;5081920;28;20210;-65
2023/10/02 10:41:09;;;;;;;20.13;19.33;;;24.80;99.90;;;;;;5082650;28;20574;-66
2023/10/02 10:46:22;;;;;;;21.02;20.23;;;24.90;99.90;;;;;;5065254;28;20203;-66
2023/10/02 10:48:59;;;;;;;21.25;20.45;;;25.00;99.90;;;;;;5072460;28;20298;-65
2023/10/02 10:51:33;;;;;;;20.98;20.17;;;25.00;99.90;;;;;;5072400;28;20226;-65
2023/10/02 10:54:12;;;;;;;21.63;20.83;;;25.10;99.90;;;;;;5072323;28;20673;-65
2023/10/02 10:56:43;;;;;;;22.98;22.10;;;25.10;99.90;;;;;;5072225;28;20300;-65
2023/10/02 10:59:15;;;;;;;21.42;20.52;;;25.20;99.90;;;;;;5071986;28;20219;-65
2023/10/02 11:02:09;;;;;;;21.08;20.27;;;25.20;99.90;;;;;;5072168;28;20235;-66
2023/10/02 11:04:39;;;;;;;21.67;20.83;;;25.30;99.90;;;;;;5067109;28;20207;-65
2023/10/02 11:07:19;;;;;;;22.30;21.45;;;25.30;99.90;;;;;;5072407;28;20230;-65
2023/10/02 11:10:14;;;;;;;23.00;22.10;;;25.40;99.90;;;;;;5078198;28;20203;-64
2023/10/02 11:12:39;;;;;;;22.13;21.23;;;25.40;99.90;;;;;;5079150;28;20245;-65
2023/10/02 11:15:28;;;;;;;22.95;22.05;;;25.40;99.90;;;;;;5078850;28;20219;-65
2023/10/02 11:18:23;;;;;;;22.33;21.50;;;25.40;99.90;;;;;;5072430;28;20220;-65
2023/10/02 11:20:51;;;;;;;21.63;20.83;;;25.50;99.90;;;;;;5067988;28;20227;-65
2023/10/02 11:23:37;;;;;;;21.52;20.73;;;25.50;99.90;;;;;;5072869;28;20254;-65
2023/10/02 11:26:10;;;;;;;21.73;20.92;;;25.60;99.90;;;;;;5072632;28;20239;-65
2023/10/02 11:28:38;;;;;;;19.65;18.85;;;25.60;99.90;;;;;;5072058;28;20284;-65
2023/10/02 11:31:29;;;;;;;20.42;19.63;;;25.70;99.90;;;;;;5072312;28;20678;-65
2023/10/02 11:34:00;;;;;;;20.08;19.27;;;25.70;99.90;;;;;;5071774;28;20212;-65
2023/10/02 11:36:28;;;;;;;19.50;18.80;;;25.80;99.90;;;;;;5060075;28;20211;-64
2023/10/02 11:38:57;;;;;;;20.92;20.08;;;25.80;99.90;;;;;;5051804;28;20246;-65
2023/10/02 11:41:23;;;;;;;19.25;18.55;;;25.90;99.90;;;;;;5052071;28;20235;-64
2023/10/02 11:43:51;;;;;;;20.38;19.58;;;26.00;99.90;;;;;;5064759;28;20211;-66
2023/10/02 11:46:18;;;;;;;19.92;19.15;;;26.10;99.90;;;;;;5069969;28;20241;-68
2023/10/02 11:48:49;;;;;;;20.10;19.30;;;26.20;99.90;;;;;;5071131;28;20246;-66
2023/10/02 11:51:16;;;;;;;18.73;18.02;;;26.20;99.90;;;;;;5070881;28;20276;-65
2023/10/02 11:53:42;;;;;;;19.67;18.88;;;26.30;99.90;;;;;;5071296;28;20211;-65
2023/10/02 11:56:11;;;;;;;20.02;19.23;;;26.30;99.90;;;;;;5071107;28;20203;-66
2023/10/02 11:58:37;;;;;;;19.58;18.77;;;26.40;99.90;;;;;;5070586;28;20239;-65
2023/10/02 12:01:06;;;;;;;20.13;19.33;;;26.40;99.90;;;;;;5070813;28;20246;-66
2023/10/02 12:03:36;;;;;;;21.17;20.38;;;26.50;99.90;;;;;;5071075;28;20260;-67
2023/10/02 12:06:03;;;;;;;20.42;19.63;;;26.60;99.90;;;;;;5070638;28;20651;-67
2023/10/02 12:08:33;;;;;;;21.95;21.05;;;26.60;99.90;;;;;;5070722;28;20237;-66
2023/10/02 12:11:00;;;;;;;20.30;19.50;;;26.60;99.90;;;;;;5070531;28;20203;-65
2023/10/02 12:13:29;;;;;;;18.40;17.70;;;26.60;99.90;;;;;;5071155;28;20203;-66
2023/10/02 12:15:57;;;;;;;19.23;18.52;;;26.70;99.90;;;;;;5071069;28;20222;-65
2023/10/02 12:18:24;;;;;;;18.85;18.15;;;26.80;99.90;;;;;;5065551;28;20207;-65
2023/10/02 12:20:51;;;;;;;19.50;18.75;;;26.80;99.90;;;;;;5070623;28;20251;-65
2023/10/02 12:23:19;;;;;;;19.75;18.95;;;26.90;99.90;;;;;;5070516;28;20724;-65
2023/10/02 12:25:49;;;;;;;19.17;18.48;;;26.80;99.90;;;;;;5069208;28;20207;-65
2023/10/02 12:28:16;;;;;;;19.67;18.88;;;26.90;99.90;;;;;;5070366;28;20219;-65
2023/10/02 12:30:44;;;;;;;19.42;18.63;;;27.00;99.90;;;;;;5070713;28;20207;-65
2023/10/02 12:33:12;;;;;;;19.63;18.83;;;27.00;99.90;;;;;;5071212;28;20254;-66
2023/10/02 12:35:39;;;;;;;19.65;18.85;;;27.10;99.90;;;;;;5071166;28;20211;-65
2023/10/02 12:38:07;;;;;;;21.52;20.73;;;27.00;99.90;;;;;;5070652;28;20203;-64
2023/10/02 12:40:34;;;;;;;21.15;20.35;;;27.00;99.90;;;;;;5070924;28;20233;-65
2023/10/02 12:43:01;;;;;;;19.83;19.02;;;27.10;99.90;;;;;;5071156;28;20223;-65
2023/10/02 12:45:33;;;;;;;19.67;18.88;;;27.20;99.90;;;;;;5071449;28;20287;-65
2023/10/02 12:48:06;;;;;;;21.50;20.60;;;27.20;99.90;;;;;;5070685;28;20207;-66
2023/10/02 12:50:37;;;;;;;20.02;19.27;;;27.20;99.90;;;;;;5071248;28;20239;-65
2023/10/02 12:53:04;;;;;;;21.40;20.60;;;27.20;99.90;;;;;;5070553;28;20261;-65
2023/10/02 12:55:34;;;;;;;20.77;19.98;;;27.20;99.90;;;;;;5071650;28;20629;-65
2023/10/02 12:58:03;;;;;;;19.42;18.63;;;27.30;99.90;;;;;;5069620;28;20214;-65
2023/10/02 13:00:31;;;;;;;19.20;18.40;;;27.40;99.90;;;;;;5071262;28;20207;-65
2023/10/02 13:02:58;;;;;;;19.00;18.30;;;27.40;99.90;;;;;;5071286;28;20338;-66
2023/10/02 13:05:26;;;;;;;19.55;18.75;;;27.50;99.90;;;;;;5071776;28;20244;-66
2023/10/02 13:07:56;;;;;;;19.10;18.40;;;27.50;99.90;;;;;;5071948;28;20214;-65
2023/10/02 13:10:24;;;;;;;19.10;18.40;;;27.50;99.90;;;;;;5072974;28;20253;-66
2023/10/02 13:12:51;;;;;;;18.95;18.25;;;27.60;99.90;;;;;;5072087;28;20711;-66
2023/10/02 13:15:19;;;;;;;19.02;18.23;;;27.60;99.90;;;;;;5073511;28;20978;-66
2023/10/02 13:17:46;;;;;;;18.83;18.13;;;27.60;99.90;;;;;;5073658;28;20223;-66
2023/10/02 13:20:13;;;;;;;19.65;18.85;;;27.60;99.90;;;;;;5075227;28;20207;-66
2023/10/02 13:22:41;;;;;;;19.98;19.20;;;27.70;99.90;;;;;;5075091;28;20231;-67
2023/10/02 13:25:11;;;;;;;20.48;19.67;;;27.70;99.90;;;;;;5062029;28;20213;-65
2023/10/02 13:27:39;;;;;;;22.83;21.83;;;27.70;99.90;;;;;;5049877;28;20307;-66